Burwell, NE

6:16 AM CDT on May 05, 2015 (GMT -0500)
Sharp | | Change Station
CLOSE
Current Station
Airport
Location: Ord,
Elevation: 2070 ft
Nearby Weather Stations

Elev 2070 ft 41.62 °N, 98.95 °W | Updated 23 minutes ago

Fog
Fog
54 °F
Feels Like 54 °F
N
6
Wind Variable Wind from NE

Today
High -- | Low -- °F
--% Chance of Precip.
Yesterday
High -- | Low -- °F
Precip. -- in
6:28 AM 8:39 PM
Full, 98% visible
Pressure 30.04 in
Visibility 0.5 miles
Clouds
Dew Point 53 °F
Humidity 97%
Rainfall 0.00 in
Snow Depth Not available.
UV Not available.
Pollen 6.30 out of 12
Air Quality Not available.
Flu Activity Local Activity
METAR KODX 051053Z AUTO 05005KT 1/2SM FG VV002 12/12 A3004 RMK AO2 SLP173 T01220117

More Conditions Fewer Conditions

Pressure 30.04 in
Visibility 0.5 miles
Clouds
Dew Point 53 °F
Humidity 97%
Rainfall 0.00 in
Snow Depth Not available.
UV Not available.
Pollen 6.30 out of 12
Air Quality Not available.
Flu Activity Local Activity
METAR KODX 051053Z AUTO 05005KT 1/2SM FG VV002 12/12 A3004 RMK AO2 SLP173 T01220117

More Conditions Fewer Conditions

Nepal has a long way to go to dig out and rebuild from a devastating earthquake. We have teamed up with several charities and organizations to make contributing to the relief effort as easy as possible.
How you can help: Portlight Strategies | Red Cross
Nowcast | as of 3:33 am CDT on May 5, 2015

Occasional light drizzle and areas of fog reducing visibilities to around a half mile at times will continue early this morning south of a line from Oneill to Chappell. Visibilities generally ranged from a mile to 3 miles but may vary greatly over short distances. If you are traveling along Interstate 80 between Big Springs and Brady be prepared for reduced visibilities.

×

10-Day Weather Forecast

Almanac

Astronomy

May. 05, 2015 Rise Set
Actual Time
Civil Twilight
Nautical Twilight
Astronomical Twilight
Moon
Length of Visible Light
Length of Day
Tomorrow will be .
, % of the Moon is Illuminated

Today's Extremes

State Highs State Lows

Community

WunderPhotos

Upload Photos

1,818,828 photos uploaded!

WunderBlogs® & News

Nearby

Air Quality

  Air Quality AQ Index Pollutant
Not available.

Snow Depth

Station Depth Elevation

Earthquake Activity

City Distance Mag. Time & Date
Minimum magnitude displayed is 2.5.

Coastal Water Temperatures

Place Temperature

Stations

Nearby Weather Stations

Station Location Temp. Windchill Dew Point Humidity Wind Precip. Elev Updated Type